Rio Rancho, NM

12:04 AM MDT on September 24, 2014 (GMT -0600)
Albuquerque Double Eagle | Change Station
CLOSE
Current Station
Airport
Location: Albuquerque Double Eagle,
Elevation: 5837 ft
Nearby Weather Stations

Elev 5837 ft 35.15 °N, 106.79 °W | Updated 9 minutes ago

Clear
Clear
60 °F
Feels Like 60 °F
N
5
Wind Variable Wind from SE

Today
High -- | Low -- °F
--% Chance of Precip.
Yesterday
High -- | Low -- °F
Precip. -- in
6:56 AM 7:00 PM
Waning Crescent, 0% visible
Pressure 30.25 in
Visibility 10.0 miles
Clouds Clear
Dew Point 55 °F
Humidity 83%
Rainfall 0.00 in
Snow Depth Not available.
UV 0 out of 12
Pollen 6.30 out of 12
Air Quality Not available.
Flu Activity Not available.
METAR KAEG 240555Z AUTO 13004KT 10SM CLR 16/13 A3025 RMK AO2 T01580129 10255 20156

More Conditions Fewer Conditions

Pressure 30.25 in
Visibility 10.0 miles
Clouds Clear
Dew Point 55 °F
Humidity 83%
Rainfall 0.00 in
Snow Depth Not available.
UV 0 out of 12
Pollen 6.30 out of 12
Air Quality Not available.
Flu Activity Not available.
METAR KAEG 240555Z AUTO 13004KT 10SM CLR 16/13 A3025 RMK AO2 T01580129 10255 20156

More Conditions Fewer Conditions

10-Day Weather Forecast

Almanac

Astronomy

Sep. 24, 2014 Rise Set
Actual Time 6:56 AM MDT 7:00 PM MDT
Civil Twilight 6:30 AM MDT 7:25 PM MDT
Nautical Twilight 6:01 AM MDT 7:55 PM MDT
Astronomical Twilight 5:31 AM MDT 8:25 PM MDT
Moon 7:17 AM MDT 7:15 PM MDT
Length of Visible Light 12h 54m
Length of Day
12h 04m
Tomorrow will be 2m 12s shorter.
Waning Crescent, 0% of the Moon is Illuminated
Today
Waning Crescent
Sep 24
New
Oct 1
First Quarter
Oct 8
Full
Oct 15
Last Quarter

Today's Extremes

State Highs State Lows

Community

WunderPhotos

Upload Photos

1,755,891 photos uploaded!

WunderBlogs® & News

Nearby

Snow Depth

Station Depth Elevation
North Costilla 1 in 10600 ft
Tolby 0 in 10180 ft
Chamita 0 in 8400 ft
Silver Creek Divide 1 in 9000 ft
Signal Peak 1 in 8360 ft

Earthquake Activity

City Distance Mag. Time & Date
No recent earthquake activity has been reported nearby.
Minimum magnitude displayed is 2.5.

Coastal Water Temperatures

Place Temperature
No Stations Reporting

Nearby Weather Stations